Time;durP1;ratioP1;P1;durP2;ratioP2;P2;SDS_P1;SDS_P2;PMS_P1;PMS_P2;Temp;Humidity;BMP_temperature;BMP_pressure;BME280_temperature;BME280_humidity;BME280_pressure;Samples;Min_cycle;Max_cycle;Signal;HPM_P1;HPM_P2
2022/05/24 00:00:00;;;;;;;5.97;2.40;;;;;;;17.71;100.00;95240.59;5041851;28;20209;-88
2022/05/24 00:02:27;;;;;;;8.82;2.75;;;;;;;17.75;100.00;95242.50;5041649;28;20221;-89
2022/05/24 00:04:53;;;;;;;7.53;2.92;;;;;;;17.71;100.00;95241.41;5042225;28;20205;-88
2022/05/24 00:07:21;;;;;;;6.25;2.67;;;;;;;17.87;100.00;95245.06;5041600;28;20209;-86
2022/05/24 00:09:48;;;;;;;9.40;2.70;;;;;;;17.75;100.00;95247.84;5041990;28;20209;-88
2022/05/24 00:12:15;;;;;;;5.68;2.95;;;;;;;17.73;100.00;95251.78;5041592;28;20225;-87
2022/05/24 00:17:26;;;;;;;5.13;3.03;;;;;;;17.80;100.00;95244.47;5045027;28;20212;-88
2022/05/24 00:19:52;;;;;;;5.07;3.03;;;;;;;17.67;100.00;95236.81;5045340;28;20784;-88
2022/05/24 00:22:19;;;;;;;9.30;3.30;;;;;;;17.68;100.00;95238.44;5045025;28;20225;-86
2022/05/24 00:24:46;;;;;;;9.43;3.80;;;;;;;17.82;100.00;95239.69;5044744;28;20205;-88
2022/05/24 00:27:13;;;;;;;8.40;3.88;;;;;;;17.68;100.00;95238.44;5045127;28;20708;-88
2022/05/24 00:29:39;;;;;;;11.18;3.50;;;;;;;17.58;100.00;95230.28;5044708;28;20217;-87
2022/05/24 00:32:07;;;;;;;7.85;3.17;;;;;;;17.64;100.00;95233.81;5044471;28;20225;-86
2022/05/24 00:34:33;;;;;;;6.95;2.67;;;;;;;17.65;100.00;95228.25;5045150;28;20618;-88
2022/05/24 00:36:59;;;;;;;8.15;3.00;;;;;;;17.66;100.00;95232.53;5044588;28;20683;-87
2022/05/24 00:39:26;;;;;;;5.10;2.78;;;;;;;17.63;100.00;95226.88;5043839;28;20583;-86
2022/05/24 00:41:58;;;;;;;6.88;3.08;;;;;;;17.73;100.00;95227.81;5044883;28;20223;-88
2022/05/24 00:44:30;;;;;;;6.25;2.85;;;;;;;17.71;100.00;95243.25;5045206;28;20198;-88
2022/05/24 00:47:01;;;;;;;10.13;3.90;;;;;;;17.82;100.00;95232.50;5044216;28;20617;-88
2022/05/24 00:49:32;;;;;;;5.45;2.88;;;;;;;17.71;100.00;95229.94;5044533;28;20201;-89
2022/05/24 00:52:03;;;;;;;5.47;2.65;;;;;;;17.75;100.00;95241.72;5044628;28;20225;-88
2022/05/24 00:54:30;;;;;;;9.45;3.20;;;;;;;17.64;100.00;95237.28;5044306;28;20336;-88
2022/05/24 00:57:05;;;;;;;6.60;2.72;;;;;;;17.87;100.00;95245.06;5044770;28;20209;-88
2022/05/24 00:59:41;;;;;;;6.78;3.17;;;;;;;17.88;100.00;95234.19;5044596;28;20201;-88
2022/05/24 01:02:07;;;;;;;8.27;3.28;;;;;;;17.53;100.00;95243.53;5044087;28;20220;-88
2022/05/24 01:04:34;;;;;;;9.45;3.42;;;;;;;17.62;100.00;95231.41;5044072;28;20378;-89
2022/05/24 01:07:00;;;;;;;6.22;3.33;;;;;;;17.65;100.00;95227.44;5044295;28;20212;-86
2022/05/24 01:09:30;;;;;;;8.05;3.40;;;;;;;17.67;100.00;95241.31;5044317;28;20201;-88
2022/05/24 01:12:02;;;;;;;9.25;3.35;;;;;;;17.75;100.00;95226.53;5044316;28;20236;-88
2022/05/24 01:14:29;;;;;;;7.78;3.80;;;;;;;17.43;100.00;95227.38;5044157;28;20228;-87
2022/05/24 01:16:57;;;;;;;8.63;3.83;;;;;;;17.61;100.00;95227.13;5044601;28;20205;-88
2022/05/24 01:19:35;;;;;;;6.03;3.45;;;;;;;17.72;100.00;95226.22;5043910;28;20205;-88
2022/05/24 01:22:26;;;;;;;5.57;3.53;;;;;;;17.79;100.00;95222.34;5043741;28;20236;-87
2022/05/24 01:25:02;;;;;;;8.43;3.72;;;;;;;17.72;100.00;95223.56;5043655;28;20204;-88
2022/05/24 01:27:30;;;;;;;5.50;3.38;;;;;;;17.58;100.00;95213.47;5043587;28;20609;-89
2022/05/24 01:29:57;;;;;;;8.43;3.38;;;;;;;17.52;100.00;95219.78;5043755;28;20951;-86
2022/05/24 01:37:53;;;;;;;9.55;3.58;;;;;;;17.58;100.00;95211.63;5044122;28;20616;-87
2022/05/24 01:40:20;;;;;;;9.85;4.05;;;;;;;17.26;100.00;95218.59;5043596;28;20251;-88
2022/05/24 01:42:48;;;;;;;6.97;3.47;;;;;;;17.54;100.00;95215.84;5043339;28;20216;-87
2022/05/24 01:45:19;;;;;;;9.48;3.72;;;;;;;17.65;100.00;95212.25;5043401;28;20582;-89
2022/05/24 01:47:48;;;;;;;8.25;3.72;;;;;;;17.45;100.00;95217.31;5043414;28;20580;-88
2022/05/24 01:50:19;;;;;;;8.25;4.22;;;;;;;17.52;100.00;95217.94;5043063;28;20201;-88
2022/05/24 01:52:49;;;;;;;9.05;3.97;;;;;;;17.57;100.00;95219.88;5043678;28;20231;-88
2022/05/24 01:55:20;;;;;;;10.05;4.20;;;;;;;17.42;100.00;95209.78;5043887;28;20217;-89
2022/05/24 01:57:51;;;;;;;8.82;4.55;;;;;;;17.60;100.00;95216.72;5043319;28;20270;-89
2022/05/24 02:00:19;;;;;;;8.48;4.00;;;;;;;17.56;100.00;95208.41;5043597;28;20328;-89
2022/05/24 02:02:47;;;;;;;11.15;4.05;;;;;;;17.57;100.00;95212.69;5043675;28;20205;-87
2022/05/24 02:05:28;;;;;;;9.77;3.67;;;;;;;17.45;100.00;95203.16;5043280;28;20441;-88
2022/05/24 02:07:54;;;;;;;7.38;3.80;;;;;;;17.33;100.00;95211.22;5043265;28;20205;-89
2022/05/24 02:10:21;;;;;;;8.90;3.78;;;;;;;17.39;100.00;95207.63;5043222;28;20220;-88
2022/05/24 02:12:53;;;;;;;8.10;3.80;;;;;;;17.60;100.00;95214.84;5042993;28;20201;-90
2022/05/24 02:15:25;;;;;;;6.13;3.55;;;;;;;17.56;100.00;95213.72;5043105;28;20225;-89
2022/05/24 02:17:57;;;;;;;8.23;4.05;;;;;;;17.58;100.00;95224.94;5043278;28;20213;-89
2022/05/24 02:20:30;;;;;;;9.57;3.60;;;;;;;17.70;100.00;95209.66;5042822;28;20209;-89
2022/05/24 02:22:57;;;;;;;7.85;4.25;;;;;;;17.67;100.00;95207.50;5041214;28;20678;-89
2022/05/24 02:25:30;;;;;;;12.30;3.63;;;;;;;17.80;100.00;95202.63;5042960;28;20204;-89
2022/05/24 02:27:58;;;;;;;7.70;3.92;;;;;;;17.66;100.00;95192.56;5042585;28;20604;-89
2022/05/24 02:30:28;;;;;;;15.90;4.35;;;;;;;17.63;100.00;95195.72;5042147;28;20720;-86
2022/05/24 02:32:54;;;;;;;6.70;3.67;;;;;;;17.61;100.00;95208.47;5043004;28;20756;-86
2022/05/24 02:35:21;;;;;;;8.68;4.22;;;;;;;17.63;100.00;95206.38;5042457;28;20236;-89
2022/05/24 02:37:48;;;;;;;7.97;3.97;;;;;;;17.57;100.00;95206.56;5042012;28;20201;-88
2022/05/24 02:43:00;;;;;;;6.80;4.03;;;;;;;17.67;100.00;95194.19;5042383;28;20314;-89
2022/05/24 02:45:27;;;;;;;6.53;3.70;;;;;;;17.58;100.00;95198.31;5042598;28;20201;-88
2022/05/24 02:47:53;;;;;;;6.80;3.72;;;;;;;17.65;100.00;95196.28;5042671;28;20216;-88
2022/05/24 02:50:21;;;;;;;7.35;3.50;;;;;;;17.67;100.00;95186.19;5042545;28;20659;-89
2022/05/24 02:52:48;;;;;;;7.05;4.10;;;;;;;17.59;100.00;95189.28;5042502;28;20256;-90
2022/05/24 02:55:15;;;;;;;7.88;3.50;;;;;;;17.52;100.00;95185.97;5042266;28;20225;-88
2022/05/24 02:57:42;;;;;;;7.55;4.35;;;;;;;17.64;100.00;95186.66;5042243;28;20631;-88
2022/05/24 03:00:14;;;;;;;7.82;3.72;;;;;;;17.64;100.00;95191.19;5042416;28;20205;-89
2022/05/24 03:02:41;;;;;;;9.93;3.55;;;;;;;17.64;100.00;95191.97;5042193;28;20205;-88
2022/05/24 03:05:10;;;;;;;7.40;3.65;;;;;;;17.67;100.00;95196.03;5042486;28;20658;-88
2022/05/24 03:10:24;;;;;;;6.60;3.45;;;;;;;17.76;100.00;95196.16;5042158;28;20354;-88
2022/05/24 03:15:39;;;;;;;5.93;3.05;;;;;;;17.70;100.00;95209.66;5042395;28;20279;-88
2022/05/24 03:18:06;;;;;;;7.43;3.90;;;;;;;17.54;100.00;95202.53;5042050;28;20630;-87
2022/05/24 03:20:33;;;;;;;8.82;3.75;;;;;;;17.54;100.00;95204.34;5042018;28;20217;-89
2022/05/24 03:22:59;;;;;;;9.60;3.20;;;;;;;17.57;100.00;95202.03;5042216;28;20654;-89
2022/05/24 03:25:26;;;;;;;8.00;3.33;;;;;;;17.44;100.00;95194.38;5042484;28;20678;-87
2022/05/24 03:27:52;;;;;;;5.55;3.35;;;;;;;17.59;100.00;95194.59;5042289;28;20208;-89
2022/05/24 03:30:19;;;;;;;6.13;3.47;;;;;;;17.59;100.00;95201.78;5042283;28;20209;-87
2022/05/24 03:32:49;;;;;;;7.63;3.47;;;;;;;17.65;100.00;95203.47;5041492;28;20214;-88
2022/05/24 03:35:16;;;;;;;8.13;3.15;;;;;;;17.61;100.00;95208.47;5041942;28;20905;-89
2022/05/24 03:37:42;;;;;;;5.38;3.10;;;;;;;17.48;100.00;95211.47;5042386;28;20209;-88
2022/05/24 03:40:10;;;;;;;9.68;2.97;;;;;;;17.54;100.00;95202.53;5041838;28;20240;-88
2022/05/24 03:42:37;;;;;;;5.40;3.15;;;;;;;17.52;100.00;95214.47;5041545;28;20204;-89
2022/05/24 03:45:05;;;;;;;8.70;3.42;;;;;;;17.60;100.00;95216.72;5041886;28;20288;-88
2022/05/24 03:47:32;;;;;;;8.10;3.85;;;;;;;17.59;100.00;95207.94;5042108;28;20204;-88
2022/05/24 03:50:00;;;;;;;6.78;3.25;;;;;;;17.73;100.00;95217.16;5045980;28;20208;-87
2022/05/24 03:52:35;;;;;;;6.38;3.28;;;;;;;17.59;100.00;95207.94;5045578;28;20216;-88
2022/05/24 03:55:02;;;;;;;9.13;3.47;;;;;;;17.59;100.00;95221.25;5045572;28;20224;-87
2022/05/24 04:00:15;;;;;;;4.97;3.15;;;;;;;17.78;100.00;95214.56;5045164;28;20678;-88
2022/05/24 04:02:42;;;;;;;5.35;3.25;;;;;;;17.70;100.00;95223.00;5045879;28;20216;-89
2022/05/24 04:05:11;;;;;;;7.88;3.28;;;;;;;17.83;100.00;95222.63;5048427;28;20205;-87
2022/05/24 04:07:39;;;;;;;5.47;3.30;;;;;;;17.83;100.00;95230.63;5048609;28;20200;-88
2022/05/24 04:10:08;;;;;;;9.93;3.40;;;;;;;17.81;100.00;95225.56;5048638;28;20202;-89
2022/05/24 04:12:34;;;;;;;6.05;3.50;;;;;;;17.67;100.00;95231.47;5048109;28;20221;-88
2022/05/24 04:15:01;;;;;;;6.32;3.40;;;;;;;17.75;100.00;95229.19;5048538;28;20605;-89
2022/05/24 04:17:27;;;;;;;8.05;3.70;;;;;;;17.76;100.00;95232.69;5048405;28;20205;-87
2022/05/24 04:19:54;;;;;;;8.40;3.40;;;;;;;17.78;100.00;95235.88;5048507;28;20311;-89
2022/05/24 04:22:22;;;;;;;8.05;3.50;;;;;;;17.72;100.00;95237.69;5047834;28;20769;-87
2022/05/24 04:24:48;;;;;;;9.25;3.95;;;;;;;17.75;100.00;95237.19;5048555;28;20208;-89
2022/05/24 04:27:15;;;;;;;6.57;3.70;;;;;;;17.77;100.00;95236.97;5045828;28;20519;-89
2022/05/24 04:29:42;;;;;;;9.55;4.07;;;;;;;17.67;100.00;95244.81;5047415;28;20212;-88
2022/05/24 04:32:10;;;;;;;11.00;3.95;;;;;;;17.81;100.00;95240.75;5047311;28;20228;-87
2022/05/24 04:34:37;;;;;;;10.85;4.30;;;;;;;17.66;100.00;95243.19;5047526;28;20201;-89
2022/05/24 04:37:06;;;;;;;8.50;3.80;;;;;;;17.86;100.00;95248.81;5047902;28;20583;-89
2022/05/24 04:39:34;;;;;;;7.40;4.13;;;;;;;17.88;100.00;95254.69;5047620;28;20208;-89
2022/05/24 04:44:45;;;;;;;8.35;4.00;;;;;;;17.75;100.00;95263.81;5047163;28;20584;-87
2022/05/24 04:47:12;;;;;;;5.35;3.30;;;;;;;17.89;100.00;95264.31;5047245;28;20205;-88
2022/05/24 04:49:40;;;;;;;10.40;3.63;;;;;;;17.79;100.00;95264.97;5047480;28;20197;-90
2022/05/24 04:52:07;;;;;;;7.53;3.22;;;;;;;17.75;100.00;95274.50;5046778;28;20229;-87
2022/05/24 04:54:37;;;;;;;7.57;3.40;;;;;;;17.53;100.00;95267.50;5047199;28;20197;-86
2022/05/24 04:57:04;;;;;;;6.30;3.35;;;;;;;17.54;100.00;95276.28;5047348;28;20216;-88
2022/05/24 04:59:31;;;;;;;7.25;3.10;;;;;;;17.55;100.00;95276.03;5046021;28;20198;-88
2022/05/24 05:01:58;;;;;;;7.32;3.20;;;;;;;17.67;100.00;95287.44;5047476;28;20222;-89
2022/05/24 05:04:25;;;;;;;6.05;3.40;;;;;;;17.57;100.00;95281.94;5046128;28;20193;-86
2022/05/24 05:06:52;;;;;;;4.85;3.10;;;;;;;17.64;100.00;95281.78;5047645;28;20205;-88
2022/05/24 05:09:19;;;;;;;7.28;3.15;;;;;;;17.64;100.00;95276.44;5047891;28;20201;-87
2022/05/24 05:11:47;;;;;;;4.93;3.10;;;;;;;17.67;100.00;95283.94;5044858;28;20248;-88
2022/05/24 05:14:13;;;;;;;6.20;3.00;;;;;;;17.36;100.00;95285.34;5044160;28;20212;-88
2022/05/24 05:16:41;;;;;;;6.30;2.90;;;;;;;17.54;100.00;95282.44;5044018;28;20224;-89
2022/05/24 05:19:10;;;;;;;7.88;2.78;;;;;;;17.57;100.00;95275.81;5043932;28;20212;-89
2022/05/24 05:21:40;;;;;;;8.05;2.83;;;;;;;17.67;100.00;95255.47;5044305;28;20569;-88
2022/05/24 05:24:08;;;;;;;4.10;2.95;;;;;;;17.83;100.00;95252.78;5044143;28;20212;-88
2022/05/24 05:26:35;;;;;;;6.93;3.17;;;;;;;17.79;100.00;95274.81;5044233;28;20197;-87
2022/05/24 05:29:03;;;;;;;7.22;3.13;;;;;;;17.82;100.00;95291.13;5044200;28;20205;-88
2022/05/24 05:31:29;;;;;;;8.07;3.00;;;;;;;17.56;100.00;95300.84;5043776;28;20220;-87
2022/05/24 05:33:58;;;;;;;3.78;2.22;;;;;;;17.62;100.00;95305.22;5044141;28;20209;-87
2022/05/24 05:36:27;;;;;;;5.15;2.95;;;;;;;17.59;100.00;95308.34;5044355;28;20227;-87
2022/05/24 05:38:54;;;;;;;5.55;2.85;;;;;;;17.39;100.00;95308.81;5044601;28;20713;-88
2022/05/24 05:41:23;;;;;;;7.57;2.55;;;;;;;17.38;100.00;95304.53;5044563;28;20217;-87
2022/05/24 05:43:49;;;;;;;9.48;2.70;;;;;;;17.29;100.00;95313.97;5043966;28;20200;-87
2022/05/24 05:46:18;;;;;;;3.42;2.67;;;;;;;17.25;100.00;95325.34;5043227;28;20198;-87
2022/05/24 05:48:46;;;;;;;4.25;2.03;;;;;;;17.12;100.00;95331.72;5043809;28;20236;-88
2022/05/24 05:51:15;;;;;;;7.28;2.90;;;;;;;17.15;100.00;95344.56;5043737;28;20698;-88
2022/05/24 05:53:42;;;;;;;3.88;2.60;;;;;;;17.17;100.00;95347.81;5043188;28;20205;-87
2022/05/24 05:56:13;;;;;;;5.70;2.83;;;;;;;17.15;100.00;95349.88;5043566;28;20596;-87
2022/05/24 05:58:40;;;;;;;6.97;3.40;;;;;;;17.23;100.00;95349.53;5043036;28;20593;-88
2022/05/24 06:01:06;;;;;;;7.43;3.55;;;;;;;17.20;100.00;95334.00;5043271;28;20221;-88
2022/05/24 06:03:34;;;;;;;5.25;3.35;;;;;;;17.42;100.00;95329.63;5043418;28;20209;-89
2022/05/24 06:06:01;;;;;;;7.50;3.08;;;;;;;17.43;100.00;95333.91;5043704;28;20212;-88
2022/05/24 06:08:27;;;;;;;4.68;3.03;;;;;;;17.62;100.00;95332.66;5043583;28;20254;-89
2022/05/24 06:10:54;;;;;;;5.47;2.83;;;;;;;17.64;100.00;95346.50;5043056;28;20248;-88
2022/05/24 06:13:20;;;;;;;5.38;2.42;;;;;;;17.85;100.00;95343.94;5042706;28;20666;-89
2022/05/24 06:15:49;;;;;;;7.60;3.50;;;;;;;17.95;100.00;95340.66;5043366;28;20225;-89
2022/05/24 06:18:15;;;;;;;5.95;2.78;;;;;;;17.56;100.00;95341.59;5043414;28;20233;-88
2022/05/24 06:20:43;;;;;;;4.80;2.88;;;;;;;17.30;100.00;95352.06;5044815;28;20232;-88
2022/05/24 06:23:10;;;;;;;7.43;3.17;;;;;;;17.17;100.00;95361.13;5042915;28;20211;-87
2022/05/24 06:25:36;;;;;;;6.57;3.03;;;;;;;17.05;100.00;95359.53;5043394;28;20202;-88
2022/05/24 06:28:03;;;;;;;6.35;3.20;;;;;;;17.00;100.00;95358.63;5041393;28;20228;-88
2022/05/24 06:30:29;;;;;;;7.55;3.45;;;;;;;17.08;100.00;95359.88;5041691;28;20208;-88
2022/05/24 06:32:56;;;;;;;5.85;3.25;;;;;;;16.85;100.00;95371.63;5043778;28;20456;-88
2022/05/24 06:35:23;;;;;;;4.35;2.63;;;;;;;16.84;100.00;95375.34;5045170;28;20316;-88
2022/05/24 06:37:53;;;;;;;7.15;2.95;;;;;;;16.82;100.00;95372.13;5046786;28;20659;-88
2022/05/24 06:40:20;;;;;;;4.90;2.83;;;;;;;16.89;100.00;95378.94;5045794;28;20209;-88
2022/05/24 06:42:47;;;;;;;7.45;2.72;;;;;;;16.60;100.00;95384.44;5048380;28;20300;-87
2022/05/24 06:45:14;;;;;;;9.30;2.67;;;;;;;16.78;100.00;95382.41;5048072;28;20201;-87
2022/05/24 06:47:40;;;;;;;4.82;2.42;;;;;;;16.80;100.00;95384.84;5050469;28;20662;-87
2022/05/24 06:50:09;;;;;;;7.00;3.10;;;;;;;16.79;100.00;95384.03;5045313;28;20205;-87
2022/05/24 06:52:36;;;;;;;7.72;2.72;;;;;;;16.83;100.00;95389.72;5043612;28;20232;-87
2022/05/24 06:55:05;;;;;;;6.40;3.03;;;;;;;16.69;100.00;95399.78;5042905;28;20353;-88
2022/05/24 06:57:32;;;;;;;4.22;2.53;;;;;;;16.54;100.00;95398.66;5043337;28;20221;-87
2022/05/24 07:02:42;;;;;;;5.78;2.05;;;;;;;16.42;100.00;95408.50;5040641;28;20594;-87
2022/05/24 07:05:12;;;;;;;4.00;2.17;;;;;;;16.56;100.00;95409.88;5042105;28;20212;-88
2022/05/24 07:07:40;;;;;;;3.47;2.28;;;;;;;16.74;100.00;95412.41;5040919;28;20201;-86
2022/05/24 07:10:12;;;;;;;5.72;2.78;;;;;;;16.91;100.00;95400.78;5041503;28;20212;-87
2022/05/24 07:12:39;;;;;;;4.20;2.55;;;;;;;16.70;100.00;95416.53;5040885;28;20201;-87
2022/05/24 07:15:06;;;;;;;7.32;3.28;;;;;;;16.74;100.00;95413.19;5043404;28;20201;-88
2022/05/24 07:17:33;;;;;;;7.57;3.22;;;;;;;16.70;100.00;95421.88;5040829;28;20225;-88
2022/05/24 07:19:59;;;;;;;5.80;3.00;;;;;;;16.70;100.00;95421.88;5040798;28;20216;-88
2022/05/24 07:22:26;;;;;;;6.00;2.90;;;;;;;16.63;100.00;95422.00;5040723;28;20505;-88
2022/05/24 07:24:53;;;;;;;5.95;2.75;;;;;;;16.89;100.00;95416.19;5044648;28;20209;-89
2022/05/24 07:27:23;;;;;;;6.47;2.63;;;;;;;16.97;100.00;95414.97;5044962;28;20212;-88
2022/05/24 07:29:50;;;;;;;3.72;2.60;;;;;;;16.87;100.00;95406.81;5045016;28;20744;-88
2022/05/24 07:32:17;;;;;;;3.50;2.33;;;;;;;16.85;100.00;95414.22;5044498;28;20239;-87
2022/05/24 07:34:43;;;;;;;6.22;2.33;;;;;;;16.76;100.00;95415.63;5045209;28;20601;-88
2022/05/24 07:37:14;;;;;;;3.22;1.75;;;;;;;16.87;100.00;95412.94;5044467;28;20276;-87
2022/05/24 07:39:41;;;;;;;5.68;1.85;;;;;;;16.80;100.00;95432.72;5044920;28;20209;-88
2022/05/24 07:47:37;;;;;;;2.90;1.67;;;;;;;16.92;100.00;95417.56;5044111;28;20677;-88
2022/05/24 07:50:04;;;;;;;4.82;2.17;;;;;;;16.96;100.00;95418.72;5043624;28;20197;-87
2022/05/24 07:52:32;;;;;;;4.88;1.95;;;;;;;16.62;100.00;95430.22;5044586;28;20221;-87
2022/05/24 07:54:58;;;;;;;5.88;2.33;;;;;;;16.74;100.00;95429.16;5044385;28;20205;-88
2022/05/24 07:57:25;;;;;;;5.63;2.38;;;;;;;16.68;100.00;95431.94;5044667;28;20232;-88
2022/05/24 07:59:52;;;;;;;7.68;2.22;;;;;;;16.96;100.00;95432.81;5044883;28;20211;-86
2022/05/24 08:02:20;;;;;;;8.70;2.60;;;;;;;16.91;100.00;95448.69;5045110;28;20224;-88
2022/05/24 08:04:47;;;;;;;6.20;2.67;;;;;;;16.91;100.00;95454.00;5044651;28;20577;-87
2022/05/24 08:07:14;;;;;;;13.40;3.88;;;;;;;17.19;100.00;95446.88;5044366;28;20197;-88
2022/05/24 08:09:40;;;;;;;11.88;3.17;;;;;;;17.16;100.00;95450.00;5044592;28;20204;-86
2022/05/24 08:12:07;;;;;;;6.13;2.13;;;;;;;17.71;100.00;95455.63;5044471;28;20229;-88
2022/05/24 08:14:34;;;;;;;4.75;2.05;;;;;;;17.84;100.00;95456.13;5043833;28;20207;-87
2022/05/24 08:17:01;;;;;;;4.70;1.70;;;;;;;18.08;100.00;95454.97;5044408;28;21363;-88
2022/05/24 08:19:28;;;;;;;4.43;2.20;;;;;;;17.80;100.00;95450.47;5045025;28;20198;-86
2022/05/24 08:21:55;;;;;;;3.30;1.73;;;;;;;18.13;100.00;95452.38;5044804;28;20232;-87
2022/05/24 08:24:21;;;;;;;2.97;1.27;;;;;;;17.64;100.00;95454.97;5045100;28;20296;-88
2022/05/24 08:26:48;;;;;;;2.80;1.75;;;;;;;18.04;100.00;95448.50;5046256;28;20208;-87
2022/05/24 08:29:14;;;;;;;2.22;1.88;;;;;;;18.32;100.00;95448.41;5048434;28;21039;-88
2022/05/24 08:31:40;;;;;;;4.25;2.00;;;;;;;18.21;100.00;95436.00;5048114;28;20613;-87
2022/05/24 08:34:08;;;;;;;5.00;1.80;;;;;;;18.33;100.00;95449.00;5048047;28;20862;-88
2022/05/24 08:36:35;;;;;;;4.22;2.30;;;;;;;18.01;100.00;95441.78;5048098;28;20276;-86
2022/05/24 08:39:02;;;;;;;3.22;1.70;;;;;;;17.94;100.00;95448.31;5048182;28;20213;-88
2022/05/24 08:41:37;;;;;;;3.47;1.70;;;;;;;18.20;100.00;95443.19;5048019;28;20221;-89
2022/05/24 08:49:55;;;;;;;2.88;1.73;;;;;;;17.79;100.00;95448.03;5047891;28;20243;-88
2022/05/24 08:52:23;;;;;;;3.13;1.77;;;;;;;17.51;100.00;95453.38;5047384;28;20225;-87
2022/05/24 08:54:51;;;;;;;4.47;1.95;;;;;;;17.68;100.00;95459.59;5048428;28;20204;-88
2022/05/24 08:57:24;;;;;;;2.60;1.48;;;;;;;17.38;100.00;95464.31;5048325;28;20868;-88
2022/05/24 08:59:57;;;;;;;3.55;1.80;;;;;;;17.37;100.00;95478.69;5047609;28;20200;-87
2022/05/24 09:02:24;;;;;;;5.80;2.20;;;;;;;16.92;100.00;95489.44;5046117;28;20724;-87
2022/05/24 09:04:51;;;;;;;6.18;2.10;;;;;;;16.78;100.00;95496.03;5046807;28;20581;-86
2022/05/24 09:07:27;;;;;;;3.67;1.92;;;;;;;16.80;100.00;95499.25;5045861;28;20193;-88
2022/05/24 09:10:00;;;;;;;6.80;2.13;;;;;;;16.83;100.00;95509.44;5044602;28;20209;-87
2022/05/24 09:12:47;;;;;;;4.45;2.00;;;;;;;16.77;100.00;95518.34;5044134;28;20224;-87
2022/05/24 09:15:23;;;;;;;3.35;1.70;;;;;;;16.62;100.00;95523.31;5044412;28;20200;-88
2022/05/24 09:18:05;;;;;;;8.50;2.53;;;;;;;16.83;100.00;95528.88;5044288;28;20229;-88
2022/05/24 09:20:35;;;;;;;5.57;1.65;;;;;;;16.56;100.00;95542.88;5045939;28;21620;-88
2022/05/24 09:23:10;;;;;;;1.73;1.30;;;;;;;16.08;100.00;95533.38;5047370;28;20205;-88
2022/05/24 09:25:36;;;;;;;0.60;0.60;;;;;;;15.25;100.00;95562.69;5047660;28;20216;-88
2022/05/24 09:28:04;;;;;;;1.20;0.90;;;;;;;15.05;100.00;95564.72;5047024;28;20216;-88
2022/05/24 09:30:42;;;;;;;4.53;0.60;;;;;;;15.27;100.00;95563.28;5045944;28;20209;-88
2022/05/24 09:33:21;;;;;;;4.20;0.70;;;;;;;15.45;100.00;95555.31;5043366;28;20209;-87
2022/05/24 09:35:49;;;;;;;2.08;0.70;;;;;;;15.44;100.00;95556.31;5044284;28;20208;-87
2022/05/24 09:38:22;;;;;;;1.80;0.68;;;;;;;15.86;100.00;95551.69;5043557;28;20225;-87
2022/05/24 09:40:52;;;;;;;5.88;0.80;;;;;;;15.67;100.00;95564.41;5043999;28;20249;-87
2022/05/24 09:43:26;;;;;;;0.85;0.60;;;;;;;15.96;100.00;95561.75;5043163;28;20212;-88
2022/05/24 09:45:57;;;;;;;2.28;0.80;;;;;;;15.83;100.00;95567.25;5042621;28;20209;-87
2022/05/24 09:48:28;;;;;;;0.65;0.65;;;;;;;16.24;100.00;95557.47;5043257;28;20201;-88
2022/05/24 09:50:57;;;;;;;3.17;0.85;;;;;;;16.41;100.00;95565.59;5043242;28;20713;-87
2022/05/24 09:53:27;;;;;;;1.65;1.17;;;;;;;16.50;100.00;95559.75;5043064;28;20201;-87
2022/05/24 09:55:55;;;;;;;1.48;0.70;;;;;;;16.32;100.00;95559.84;5043426;28;20205;-87
2022/05/24 09:58:26;;;;;;;0.55;0.55;;;;;;;16.52;100.00;95562.97;5042861;28;20221;-87
2022/05/24 10:00:56;;;;;;;0.73;0.50;;;;;;;16.60;99.31;95560.00;5042802;28;20729;-87
2022/05/24 10:03:25;;;;;;;1.05;0.65;;;;;;;16.65;99.23;95568.09;5042842;28;20201;-87
2022/05/24 10:05:59;;;;;;;0.60;0.50;;;;;;;16.87;98.92;95569.16;5043031;28;20206;-87
2022/05/24 10:08:27;;;;;;;1.38;0.80;;;;;;;16.92;95.99;95567.41;5042852;28;20232;-85
2022/05/24 10:10:58;;;;;;;5.50;0.70;;;;;;;17.05;95.67;95577.81;5044233;28;20306;-87
2022/05/24 10:13:38;;;;;;;2.72;0.70;;;;;;;17.52;93.05;95572.22;5039546;28;20559;-87
2022/05/24 10:16:14;;;;;;;4.03;0.80;;;;;;;17.67;90.75;95585.03;5041937;28;20205;-87
2022/05/24 10:18:52;;;;;;;0.50;0.50;;;;;;;17.81;94.15;95588.00;5042464;28;20232;-88
2022/05/24 10:21:26;;;;;;;3.42;0.90;;;;;;;17.78;91.95;95588.50;5041708;28;20224;-87
2022/05/24 10:24:01;;;;;;;1.33;0.80;;;;;;;17.70;90.34;95600.56;5041887;28;20697;-87
2022/05/24 10:26:41;;;;;;;1.88;0.80;;;;;;;18.05;94.21;95594.06;5041819;28;20201;-88
2022/05/24 10:29:16;;;;;;;2.92;0.90;;;;;;;18.26;93.17;95594.22;5041391;28;20208;-88
2022/05/24 10:31:52;;;;;;;1.80;1.00;;;;;;;18.45;93.34;95596.44;5041752;28;20228;-85
2022/05/24 10:40:17;;;;;;;2.15;0.95;;;;;;;18.57;89.93;95599.88;5041786;28;20262;-88
2022/05/24 10:43:03;;;;;;;3.00;1.08;;;;;;;19.25;92.26;95601.25;5041428;28;20204;-85
2022/05/24 10:48:25;;;;;;;2.55;0.98;;;;;;;19.33;87.97;95611.53;5040189;28;20762;-88
2022/05/24 10:50:55;;;;;;;1.85;1.02;;;;;;;19.16;94.63;95616.09;5040621;28;20247;-87
2022/05/24 10:53:26;;;;;;;3.40;1.25;;;;;;;18.89;90.04;95611.63;5042897;28;20204;-87
2022/05/24 10:56:06;;;;;;;4.75;1.40;;;;;;;18.79;88.92;95614.13;5041996;28;20209;-88
2022/05/24 10:58:36;;;;;;;2.10;1.17;;;;;;;18.96;87.30;95614.94;5043307;28;20208;-89
2022/05/24 11:01:09;;;;;;;1.58;1.00;;;;;;;18.84;90.70;95611.53;5043102;28;20227;-88
2022/05/24 11:03:43;;;;;;;2.63;0.90;;;;;;;18.35;88.19;95606.97;5040525;28;20255;-86
2022/05/24 11:06:27;;;;;;;3.45;1.20;;;;;;;18.11;94.20;95620.56;5040687;28;20232;-86
2022/05/24 11:09:01;;;;;;;1.40;0.95;;;;;;;18.36;93.49;95621.09;5041314;28;20201;-88
2022/05/24 11:11:35;;;;;;;3.03;1.17;;;;;;;18.44;99.13;95621.53;5043722;28;20224;-88
2022/05/24 11:14:09;;;;;;;1.05;0.93;;;;;;;18.30;89.61;95630.03;5044458;28;20576;-87
2022/05/24 11:16:40;;;;;;;2.55;0.98;;;;;;;18.48;88.08;95622.66;5044692;28;20208;-87
2022/05/24 11:19:10;;;;;;;1.00;0.90;;;;;;;18.57;86.32;95629.22;5044731;28;20227;-88
2022/05/24 11:21:41;;;;;;;4.05;1.05;;;;;;;18.80;92.23;95634.44;5044529;28;20630;-88
2022/05/24 11:24:13;;;;;;;2.03;1.05;;;;;;;18.49;86.19;95637.59;5044335;28;20228;-89
2022/05/24 11:26:50;;;;;;;1.85;1.10;;;;;;;18.54;81.71;95636.91;5043813;28;20211;-85
2022/05/24 11:29:24;;;;;;;1.48;0.90;;;;;;;18.49;85.35;95634.94;5044586;28;20205;-88
2022/05/24 11:31:52;;;;;;;2.55;0.60;;;;;;;18.17;84.01;95640.19;5044452;28;20606;-88
2022/05/24 11:34:21;;;;;;;0.93;0.60;;;;;;;18.33;82.89;95620.75;5044286;28;20216;-85
2022/05/24 11:37:01;;;;;;;1.05;0.40;;;;;;;17.93;75.65;95628.75;5044854;28;20201;-85
2022/05/24 11:39:31;;;;;;;0.30;0.30;;;;;;;18.06;76.39;95633.00;5044867;28;20197;-88
2022/05/24 11:42:20;;;;;;;0.35;0.35;;;;;;;18.17;75.30;95650.84;5043545;28;20231;-86
2022/05/24 11:44:47;;;;;;;0.55;0.50;;;;;;;17.89;74.86;95654.28;5044939;28;20209;-89
2022/05/24 11:47:47;;;;;;;1.00;0.60;;;;;;;18.20;73.36;95658.38;5044778;28;20239;-85
2022/05/24 11:50:38;;;;;;;0.68;0.50;;;;;;;18.51;74.05;95654.19;5044996;28;20563;-90
2022/05/24 11:53:07;;;;;;;1.05;0.60;;;;;;;18.51;73.34;95656.88;5044626;28;21071;-90
2022/05/24 11:55:49;;;;;;;0.73;0.45;;;;;;;18.88;73.51;95649.25;5045106;28;20316;-87
2022/05/24 11:58:49;;;;;;;1.40;0.50;;;;;;;18.79;71.98;95642.66;5044803;28;20300;-88
2022/05/24 12:01:36;;;;;;;0.77;0.50;;;;;;;18.61;67.24;95650.88;5039607;28;20789;-86
2022/05/24 12:10:01;;;;;;;0.60;0.40;;;;;;;18.80;67.19;95649.63;5047268;28;20292;-88
2022/05/24 12:12:31;;;;;;;0.55;0.45;;;;;;;19.01;68.96;95639.84;5048663;28;20702;-88
2022/05/24 12:15:15;;;;;;;1.73;0.70;;;;;;;19.41;69.47;95643.19;5049084;28;20579;-90
2022/05/24 12:17:42;;;;;;;0.75;0.50;;;;;;;19.32;67.64;95641.16;5048070;28;20220;-88
2022/05/24 12:20:27;;;;;;;1.42;0.75;;;;;;;19.13;66.51;95640.63;5045714;28;20216;-88
2022/05/24 12:23:16;;;;;;;0.70;0.43;;;;;;;18.74;70.44;95645.28;5045268;28;20224;-89
2022/05/24 12:25:54;;;;;;;0.65;0.47;;;;;;;19.05;68.55;95641.00;5045625;28;20705;-88
2022/05/24 12:28:24;;;;;;;0.70;0.40;;;;;;;19.27;66.57;95652.59;5045943;28;20213;-88